Flight Track Log - Related Links

Times and Time Zones

All times are in EST time to prevent confusion due to time zone crossing. See the LXJ542 flight status page for this flight to view local times or setup timezone preferences in your user account.

Time Position Orientation Groundspeed Altitude Reporting Facility
EST Latitude Longitude Course Direction KTS MPH feet Rate Location/Type
Mon 06:00:28 PM 33.7506 -116.3011 140° Southeast 153 176 40,000  Level Los Angeles Center
Mon 06:01:30 PM 33.7117 -116.2619 140° Southeast 198 228 40,000 -15,435 Level Los Angeles Center
Mon 06:02:32 PM 33.7061 -116.2128 98° East 174 200 8,100 -13,680 Descending Los Angeles Center
Mon 06:03:35 PM 33.7658 -116.2294 347° North 264 304 11,500 2,640 Climbing Los Angeles Center
Mon 06:04:37 PM 33.8403 -116.2933 325° Northwest 329 379 13,600 3,194 Climbing Los Angeles Center
Mon 06:05:39 PM 33.9433 -116.3811 325° Northwest 376 433 18,100 3,871 Climbing Los Angeles Center
Mon 06:06:41 PM 34.0286 -116.4544 325° Northwest 378 435 21,600 3,000 Climbing Los Angeles Center
Mon 06:07:43 PM 34.1183 -116.5258 327° Northwest 389 448 24,300 2,758 Climbing Los Angeles Center
Mon 06:08:45 PM 34.2244 -116.5669 342° North 401 461 27,300 2,613 Climbing Los Angeles Center
Mon 06:09:47 PM 34.3089 -116.6447 323° Northwest 409 471 29,700 2,274 Climbing Los Angeles Center
Mon 06:10:49 PM 34.3261 -116.7828 279° West 415 478 32,000 1,113 Climbing Los Angeles Center
Mon 06:11:51 PM 34.3400 -116.9569 276° West 428 493 32,000 48 Level Los Angeles Center
Mon 06:12:53 PM 34.3528 -117.1042 276° West 438 504 32,100 1,258 Climbing Los Angeles Center
Mon 06:13:55 PM 34.3944 -117.2356 291° West 433 498 34,600 2,129 Climbing Los Angeles Center
Mon 06:14:57 PM 34.4472 -117.3603 297° West 416 479 36,500 1,728 Climbing Los Angeles Center
Mon 06:16:00 PM 34.5017 -117.4869 298° West 421 484 38,200 1,632 Climbing Los Angeles Center
Mon 06:17:02 PM 34.5556 -117.6125 298° West 420 483 39,900 871 Climbing Los Angeles Center
Mon 06:18:04 PM 34.6200 -117.7661 297° West 425 489 40,000 48 Climbing Los Angeles Center
Mon 06:19:06 PM 34.6736 -117.8928 297° West 421 484 40,000  Level Los Angeles Center
Mon 06:20:08 PM 34.7269 -118.0186 297° West 419 482 40,000  Level Los Angeles Center
Mon 06:21:10 PM 34.7792 -118.1425 297° West 411 473 40,000  Level Los Angeles Center
Mon 06:22:12 PM 34.8319 -118.2678 297° West 415 478 40,000  Level Los Angeles Center
Mon 06:23:14 PM 34.8861 -118.3939 298° West 420 483 40,000  Level Los Angeles Center
Mon 06:24:16 PM 34.9414 -118.5236 297° West 411 473 40,000  Level Los Angeles Center
Mon 06:25:18 PM 34.9914 -118.6522 295° West 421 484 40,000  Level Los Angeles Center
Mon 06:26:20 PM 35.0450 -118.7767 298° West 418 481 40,000  Level Los Angeles Center
Mon 06:27:22 PM 35.1081 -118.9281 297° West 418 481 40,000  Level Los Angeles Center
Mon 06:28:24 PM 35.1600 -119.0528 297° West 414 476 40,000  Level Los Angeles Center
Mon 06:29:26 PM 35.2122 -119.1797 297° West 416 479 40,000  Level Los Angeles Center
Mon 06:30:28 PM 35.2639 -119.3067 297° West 420 483 40,000  Level Los Angeles Center
Mon 06:31:30 PM 35.3167 -119.4339 297° West 422 486 40,000  Level Los Angeles Center
Mon 06:32:32 PM 35.3783 -119.5861 296° West 420 483 40,000  Level Los Angeles Center
Mon 06:33:34 PM 35.4297 -119.7136 296° West 421 484 40,000  Level Los Angeles Center
Mon 06:34:36 PM 35.4797 -119.8400 296° West 415 478 40,000  Level Los Angeles Center
Mon 06:35:38 PM 35.5306 -119.9661 296° West 415 478 40,000  Level Los Angeles Center
Mon 06:36:40 PM 35.5819 -120.0936 296° West 420 483 40,000  Level Los Angeles Center
Mon 06:37:42 PM 35.6400 -120.2408 296° West 419 482 40,000  Level Los Angeles Center
Mon 06:38:21 PM 35.6722 -120.3228 296° West 421 484 40,000  Level Oakland Center
Mon 06:39:23 PM 35.7214 -120.4497 296° West 419 482 40,000  Level Oakland Center
Mon 06:40:24 PM 35.7728 -120.5767 297° West 419 482 40,000  Level Oakland Center
Mon 06:41:25 PM 35.8492 -120.6864 311° West 423 487 40,000  Level Oakland Center
Mon 06:42:26 PM 35.9261 -120.7958 311° West 424 488 40,000  Level Oakland Center
Mon 06:43:27 PM 36.0206 -120.9250 312° West 424 488 40,000 -541 Level Oakland Center
Mon 06:44:28 PM 36.0978 -121.0347 311° West 425 489 38,900 -1,805 Descending Oakland Center
Mon 06:45:30 PM 36.1750 -121.1447 311° West 425 489 36,300 -2,488 Descending Oakland Center
Mon 06:46:31 PM 36.2531 -121.2522 312° West 421 484 33,800 -2,459 Descending Oakland Center
Mon 06:47:32 PM 36.3297 -121.3617 311° West 420 483 31,300 -2,557 Descending Oakland Center
Mon 06:48:33 PM 36.4114 -121.4783 311° West 445 512 28,600 -2,656 Descending Oakland Center
Mon 06:49:34 PM 36.4961 -121.5975 312° West 460 529 25,900 -2,607 Descending Oakland Center
Mon 06:50:35 PM 36.5761 -121.7147 310° West 448 516 23,300 -2,537 Descending Oakland Center
Mon 06:51:37 PM 36.6561 -121.8308 311° West 428 493 20,700 -2,488 Descending Oakland Center
Mon 06:52:38 PM 36.7283 -121.9381 310° West 406 467 18,200 -2,164 Descending Oakland Center
Mon 06:53:39 PM 36.8311 -121.9878 339° North 407 468 16,300 -1,918 Descending Oakland Center
Mon 06:54:40 PM 36.9372 -122.0167 348° North 395 455 14,300 -1,967 Descending Oakland Center
Mon 06:55:41 PM 37.0408 -122.0436 348° North 384 442 12,300 -1,918 Descending Oakland Center
Mon 06:56:42 PM 37.1481 -122.0758 347° North 333 383 10,400 -1,610 Descending Oakland Center
Mon 06:57:44 PM 37.1958 -122.1539 308° West 281 323 9,000 -1,268 Descending Oakland Center
Mon 06:58:45 PM 37.2469 -122.2133 317° Northwest 256 295 7,800 -1,279 Descending Oakland Center
Mon 06:59:46 PM 37.3167 -122.2075 North 274 315 6,400 -885 Descending Oakland Center
Mon 07:00:47 PM 37.3689 -122.1494 41° Northeast 255 293 6,000 -836 Descending Oakland Center
Mon 07:01:48 PM 37.4203 -122.0931 41° Northeast 248 285 4,700 -976 Descending Oakland Center
Mon 07:02:50 PM 37.4850 -122.1022 354° North 244 281 4,000 -488 Descending Oakland Center
Mon 07:03:51 PM 37.5275 -122.1519 317° Northwest 222 255 3,700 -689 Descending Oakland Center
Mon 07:04:52 PM 37.5511 -122.2142 296° West 208 239 2,600 -984 Descending Oakland Center
Mon 07:05:53 PM 37.5739 -122.2656 299° West 186 214 1,700 -878 Descending Oakland Center
Mon 07:06:55 PM 37.5953 -122.3161 298° West 153 176 800 -732 Descending Oakland Center
Mon 07:07:56 PM 37.6114 -122.3536 298° West 136 157 200 -590 Descending Oakland Center
Mon 07:09:00 PM 37.6167 -122.3667 322° Northwest  Level FlightAware Approximate
Mon 07:16:00 PM 37.6191 -122.3752 322° Northwest  Level Estimated
Mon 07:17:00 PM 37.6167 -122.3667 322° Northwest  Level FlightAware Approximate

Login

Don't have an account? Register now (free) for customized features, flight alerts, and more!